createdAt,value
2023-01-29T00:00:10.563Z,102183.38
2023-01-29T00:00:44.836Z,102179.88
2023-01-29T00:01:17.745Z,102176.31
2023-01-29T00:01:30.601Z,102166.69
2023-01-29T00:01:43.281Z,102176.31
2023-01-29T00:01:56.533Z,102179.81
2023-01-29T00:02:10.358Z,102175.47
2023-01-29T00:02:23.248Z,102172.84
2023-01-29T00:02:36.230Z,102172.84
2023-01-29T00:02:48.912Z,102174.59
2023-01-29T00:03:01.725Z,102168.41
2023-01-29T00:03:15.966Z,102174.59
2023-01-29T00:03:30.257Z,102171.13
2023-01-29T00:03:42.918Z,102174.59
2023-01-29T00:03:56.535Z,102167.50
2023-01-29T00:04:09.176Z,102183.31
2023-01-29T00:04:22.009Z,102168.38
2023-01-29T00:04:34.745Z,102176.31
2023-01-29T00:04:47.449Z,102175.47
2023-01-29T00:05:09.978Z,102176.31
2023-01-29T00:05:30.450Z,102177.19
2023-01-29T00:05:43.061Z,102181.59
2023-01-29T00:05:55.691Z,102179.88
2023-01-29T00:06:09.733Z,102183.38
2023-01-29T00:06:23.616Z,102179.81
2023-01-29T00:06:36.200Z,102175.47
2023-01-29T00:06:48.790Z,102179.81
2023-01-29T00:07:02.421Z,102176.31
2023-01-29T00:07:15.121Z,102178.97
2023-01-29T00:07:27.918Z,102176.31
2023-01-29T00:07:40.588Z,102167.56
2023-01-29T00:07:53.206Z,102168.44
2023-01-29T00:08:06.060Z,102165.81
2023-01-29T00:08:19.708Z,102166.75
2023-01-29T00:08:33.689Z,102177.25
2023-01-29T00:08:47.417Z,102167.56
2023-01-29T00:09:00.017Z,102170.19
2023-01-29T00:09:13.550Z,102174.56
2023-01-29T00:09:27.250Z,102171.06
2023-01-29T00:09:40.265Z,102168.41
2023-01-29T00:09:53.450Z,102170.13
2023-01-29T00:10:07.060Z,102158.69
2023-01-29T00:10:19.863Z,102165.69
2023-01-29T00:10:32.471Z,102169.25
2023-01-29T00:10:46.105Z,102170.97
2023-01-29T00:11:01.164Z,102167.50
2023-01-29T00:11:14.044Z,102167.50
2023-01-29T00:11:26.702Z,102164.00
2023-01-29T00:11:39.512Z,102168.41
2023-01-29T00:11:53.135Z,102165.78
2023-01-29T00:12:08.848Z,102164.91
2023-01-29T00:12:21.414Z,102161.34
2023-01-29T00:12:33.979Z,102157.88
2023-01-29T00:12:46.565Z,102163.16
2023-01-29T00:12:59.147Z,102157.03
2023-01-29T00:13:11.777Z,102157.03
2023-01-29T00:13:24.418Z,102150.03
2023-01-29T00:13:38.136Z,102152.66
2023-01-29T00:13:51.143Z,102155.31
2023-01-29T00:14:04.199Z,102153.53
2023-01-29T00:14:16.820Z,102147.41
2023-01-29T00:14:29.489Z,102146.56
2023-01-29T00:14:42.092Z,102148.28
2023-01-29T00:14:55.034Z,102151.81
2023-01-29T00:15:09.464Z,102150.06
2023-01-29T00:15:22.097Z,102148.34
2023-01-29T00:15:34.910Z,102143.94
2023-01-29T00:15:54.768Z,102143.09
2023-01-29T00:16:08.849Z,102142.19
2023-01-29T00:16:21.486Z,102139.59
2023-01-29T00:16:35.235Z,102138.69
2023-01-29T00:16:47.967Z,102142.25
2023-01-29T00:17:00.830Z,102144.88
2023-01-29T00:17:13.498Z,102132.56
2023-01-29T00:17:26.084Z,102144.88
2023-01-29T00:17:38.697Z,102145.72
2023-01-29T00:17:51.584Z,102140.47
2023-01-29T00:18:05.279Z,102139.59
2023-01-29T00:18:17.895Z,102142.25
2023-01-29T00:18:31.917Z,102142.25
2023-01-29T00:18:44.516Z,102137.84
2023-01-29T00:18:57.225Z,102144.88
2023-01-29T00:19:09.855Z,102142.25
2023-01-29T00:19:22.449Z,102138.75
2023-01-29T00:19:36.795Z,102143.13
2023-01-29T00:19:49.384Z,102137.84
2023-01-29T00:20:02.060Z,102138.75
2023-01-29T00:20:15.812Z,102140.53
2023-01-29T00:20:28.615Z,102137.00
2023-01-29T00:20:43.561Z,102140.47
2023-01-29T00:20:56.454Z,102143.13
2023-01-29T00:21:11.368Z,102139.66
2023-01-29T00:21:24.296Z,102137.94
2023-01-29T00:21:37.378Z,102135.25
2023-01-29T00:21:49.964Z,102137.94
2023-01-29T00:22:02.596Z,102141.44
2023-01-29T00:22:15.249Z,102138.78
2023-01-29T00:22:30.937Z,102136.16
2023-01-29T00:22:43.560Z,102130.91
2023-01-29T00:22:56.141Z,102138.81
2023-01-29T00:23:08.721Z,102137.94
2023-01-29T00:23:21.538Z,102138.88
2023-01-29T00:23:34.169Z,102135.31
2023-01-29T00:23:48.059Z,102133.63
2023-01-29T00:24:00.983Z,102132.75
2023-01-29T00:24:13.737Z,102131.88
2023-01-29T00:24:26.525Z,102129.25
2023-01-29T00:24:39.093Z,102134.53
2023-01-29T00:24:51.735Z,102131.81
2023-01-29T00:25:04.875Z,102128.31
2023-01-29T00:25:17.619Z,102125.63
2023-01-29T00:25:32.683Z,102137.09
2023-01-29T00:25:46.016Z,102134.44
2023-01-29T00:26:00.131Z,102130.13
2023-01-29T00:26:13.622Z,102129.25
2023-01-29T00:26:27.382Z,102123.09
2023-01-29T00:26:43.383Z,102139.81
2023-01-29T00:26:55.972Z,102127.47
2023-01-29T00:27:08.548Z,102129.25
2023-01-29T00:27:21.491Z,102133.59
2023-01-29T00:27:34.089Z,102130.97
2023-01-29T00:27:46.685Z,102131.81
2023-01-29T00:27:59.260Z,102130.97
2023-01-29T00:28:13.290Z,102128.34
2023-01-29T00:28:25.964Z,102129.25
2023-01-29T00:28:38.824Z,102124.84
2023-01-29T00:28:51.607Z,102129.25
2023-01-29T00:29:04.430Z,102130.13
2023-01-29T00:29:17.908Z,102127.47
2023-01-29T00:29:31.517Z,102127.41
2023-01-29T00:29:44.103Z,102143.25
2023-01-29T00:30:11.996Z,102124.75
2023-01-29T00:30:24.663Z,102126.50
2023-01-29T00:30:37.999Z,102121.25
2023-01-29T00:30:51.605Z,102131.81
2023-01-29T00:31:08.613Z,102130.06
2023-01-29T00:31:23.641Z,102130.06
2023-01-29T00:31:36.396Z,102130.97
2023-01-29T00:31:49.144Z,102123.97
2023-01-29T00:32:01.911Z,102136.25
2023-01-29T00:32:15.744Z,102130.13
2023-01-29T00:32:28.401Z,102131.88
2023-01-29T00:32:41.236Z,102129.25
2023-01-29T00:32:54.124Z,102133.69
2023-01-29T00:33:07.062Z,102135.50
2023-01-29T00:33:19.683Z,102131.94
2023-01-29T00:33:33.699Z,102135.50
2023-01-29T00:33:47.572Z,102128.44
2023-01-29T00:34:00.221Z,102126.69
2023-01-29T00:34:12.862Z,102135.50
2023-01-29T00:34:25.479Z,102128.47
2023-01-29T00:34:38.123Z,102135.50
2023-01-29T00:34:50.729Z,102128.47
2023-01-29T00:35:03.481Z,102131.09
2023-01-29T00:35:17.299Z,102132.84
2023-01-29T00:35:29.933Z,102131.97
2023-01-29T00:35:42.555Z,102132.84
2023-01-29T00:35:55.177Z,102133.72
2023-01-29T00:36:10.515Z,102130.16
2023-01-29T00:36:23.677Z,102138.13
2023-01-29T00:36:37.265Z,102127.56
2023-01-29T00:36:50.189Z,102120.53
2023-01-29T00:37:04.941Z,102124.94
2023-01-29T00:37:17.558Z,102127.56
2023-01-29T00:37:30.315Z,102120.53
2023-01-29T00:37:42.951Z,102123.22
2023-01-29T00:37:55.795Z,102122.31
2023-01-29T00:38:09.922Z,102126.75
2023-01-29T00:38:22.542Z,102121.47
2023-01-29T00:38:35.772Z,102118.88
2023-01-29T00:38:54.730Z,102120.53
2023-01-29T00:39:10.805Z,102124.03
2023-01-29T00:39:31.487Z,102112.53
2023-01-29T00:39:51.917Z,102119.59
2023-01-29T00:40:05.521Z,102121.38
2023-01-29T00:40:18.458Z,102124.03
2023-01-29T00:40:54.568Z,102117.91
2023-01-29T00:41:26.001Z,102114.38
2023-01-29T00:41:57.559Z,102115.28
2023-01-29T00:42:28.372Z,102117.88
2023-01-29T00:42:59.628Z,102119.66
2023-01-29T00:43:42.223Z,102125.78
2023-01-29T00:44:13.775Z,102127.56
2023-01-29T00:44:45.109Z,102120.53
2023-01-29T00:44:58.693Z,102119.66
2023-01-29T00:45:12.793Z,102123.16
2023-01-29T00:45:25.397Z,102120.53
2023-01-29T00:45:38.630Z,102119.69
2023-01-29T00:45:51.290Z,102124.03
2023-01-29T00:46:03.983Z,102126.75
2023-01-29T00:46:17.605Z,102120.53
2023-01-29T00:46:30.263Z,102119.69
2023-01-29T00:46:43.183Z,102121.41
2023-01-29T00:46:55.802Z,102117.91
2023-01-29T00:47:29.086Z,102118.81
2023-01-29T00:47:42.643Z,102118.81
2023-01-29T00:47:55.251Z,102123.22
2023-01-29T00:48:07.803Z,102124.09
2023-01-29T00:48:20.405Z,102123.22
2023-01-29T00:48:34.790Z,102122.31
2023-01-29T00:48:47.415Z,102117.06
2023-01-29T00:49:00.986Z,102119.69
2023-01-29T00:49:14.582Z,102122.31
2023-01-29T00:49:27.146Z,102121.41
2023-01-29T00:49:39.735Z,102115.28
2023-01-29T00:49:52.406Z,102117.91
2023-01-29T00:50:07.485Z,102120.53
2023-01-29T00:50:20.341Z,102122.25
2023-01-29T00:50:34.025Z,102126.63
2023-01-29T00:50:47.139Z,102120.50
2023-01-29T00:50:59.769Z,102122.22
2023-01-29T00:51:12.365Z,102120.50
2023-01-29T00:51:24.983Z,102124.84
2023-01-29T00:51:39.541Z,102120.50
2023-01-29T00:52:07.455Z,102121.38
2023-01-29T00:52:26.134Z,102126.63
2023-01-29T00:52:41.060Z,102126.63
2023-01-29T00:52:54.728Z,102128.34
2023-01-29T00:53:07.318Z,102123.97
2023-01-29T00:53:20.161Z,102130.06
2023-01-29T00:53:32.798Z,102124.78
2023-01-29T00:53:45.641Z,102127.47
2023-01-29T00:54:00.429Z,102128.31
2023-01-29T00:54:12.970Z,102129.16
2023-01-29T00:54:25.541Z,102126.53
2023-01-29T00:54:38.266Z,102127.41
2023-01-29T00:54:51.034Z,102125.63
2023-01-29T00:55:05.665Z,102122.13
2023-01-29T00:55:19.613Z,102125.63
2023-01-29T00:55:32.171Z,102123.91
2023-01-29T00:55:45.205Z,102120.41
2023-01-29T00:55:57.734Z,102120.44
2023-01-29T00:56:10.318Z,102125.69
2023-01-29T00:56:22.854Z,102123.03
2023-01-29T00:56:38.043Z,102130.03
2023-01-29T00:56:50.628Z,102124.75
2023-01-29T00:57:04.381Z,102127.41
2023-01-29T00:57:16.992Z,102123.03
2023-01-29T00:57:31.915Z,102122.16
2023-01-29T00:57:45.169Z,102123.91
2023-01-29T00:57:58.752Z,102130.91
2023-01-29T00:58:11.355Z,102123.03
2023-01-29T00:58:34.101Z,102127.41
2023-01-29T00:58:46.745Z,102122.16
2023-01-29T00:58:59.443Z,102127.41
2023-01-29T00:59:12.153Z,102124.78
2023-01-29T00:59:24.825Z,102129.16
2023-01-29T00:59:38.373Z,102132.69
2023-01-29T00:59:50.989Z,102122.16
2023-01-29T01:00:05.319Z,102125.69
2023-01-29T01:00:19.478Z,102129.16
2023-01-29T01:00:32.195Z,102130.06
2023-01-29T01:00:45.491Z,102124.78
2023-01-29T01:00:59.246Z,102124.78
2023-01-29T01:01:11.951Z,102134.44
2023-01-29T01:01:39.621Z,102129.16
2023-01-29T01:02:10.609Z,102125.69
2023-01-29T01:02:42.341Z,102127.38
2023-01-29T01:03:07.172Z,102129.16
2023-01-29T01:03:20.433Z,102131.78
2023-01-29T01:03:42.143Z,102131.81
2023-01-29T01:03:54.747Z,102130.03
2023-01-29T01:04:09.417Z,102137.06
2023-01-29T01:04:22.041Z,102135.31
2023-01-29T01:04:35.127Z,102133.53
2023-01-29T01:04:47.763Z,102130.91
2023-01-29T01:05:02.441Z,102127.38
2023-01-29T01:05:18.376Z,102129.16
2023-01-29T01:05:31.026Z,102135.31
2023-01-29T01:05:43.924Z,102134.44
2023-01-29T01:06:06.604Z,102130.03
2023-01-29T01:06:19.196Z,102132.66
2023-01-29T01:06:31.839Z,102128.25
2023-01-29T01:06:45.495Z,102129.16
2023-01-29T01:06:58.180Z,102137.06
2023-01-29T01:07:23.262Z,102130.91
2023-01-29T01:07:36.093Z,102126.53
2023-01-29T01:07:51.657Z,102132.66
2023-01-29T01:08:24.711Z,102131.78
2023-01-29T01:08:55.821Z,102130.91
2023-01-29T01:09:28.683Z,102126.47
2023-01-29T01:10:00.015Z,102134.38
2023-01-29T01:10:22.382Z,102130.00
2023-01-29T01:10:35.033Z,102133.50
2023-01-29T01:10:47.617Z,102130.84
2023-01-29T01:11:02.485Z,102132.63
2023-01-29T01:11:15.082Z,102137.00
2023-01-29T01:11:27.730Z,102134.38
2023-01-29T01:11:40.720Z,102130.84
2023-01-29T01:11:53.485Z,102136.09
2023-01-29T01:12:07.557Z,102134.38
2023-01-29T01:12:20.423Z,102129.09
2023-01-29T01:12:33.617Z,102128.22
2023-01-29T01:12:46.270Z,102131.72
2023-01-29T01:13:01.133Z,102129.09
2023-01-29T01:13:13.763Z,102130.91
2023-01-29T01:13:26.521Z,102132.66
2023-01-29T01:13:40.104Z,102130.03
2023-01-29T01:13:52.732Z,102123.03
2023-01-29T01:14:05.387Z,102128.22
2023-01-29T01:14:18.476Z,102133.53
2023-01-29T01:14:31.110Z,102127.38
2023-01-29T01:14:43.900Z,102124.72
2023-01-29T01:14:56.640Z,102134.38
2023-01-29T01:15:10.454Z,102125.63
2023-01-29T01:15:25.398Z,102122.97
2023-01-29T01:15:40.093Z,102129.16
2023-01-29T01:15:52.721Z,102134.38
2023-01-29T01:16:10.274Z,102133.50
2023-01-29T01:16:22.961Z,102136.13
2023-01-29T01:16:35.635Z,102137.00
2023-01-29T01:16:49.550Z,102131.72
2023-01-29T01:17:03.227Z,102134.38
2023-01-29T01:17:15.901Z,102137.00
2023-01-29T01:17:28.559Z,102128.22
2023-01-29T01:17:41.305Z,102126.44
2023-01-29T01:17:54.869Z,102128.22
2023-01-29T01:18:08.490Z,102136.03
2023-01-29T01:18:22.484Z,102130.81
2023-01-29T01:18:38.049Z,102131.72
2023-01-29T01:18:50.683Z,102137.00
2023-01-29T01:19:03.660Z,102129.06
2023-01-29T01:19:16.769Z,102135.25
2023-01-29T01:19:29.359Z,102130.84
2023-01-29T01:19:42.001Z,102136.09
2023-01-29T01:19:55.777Z,102129.94
2023-01-29T01:20:10.423Z,102135.22
2023-01-29T01:20:23.799Z,102136.13
2023-01-29T01:20:36.757Z,102137.84
2023-01-29T01:20:51.696Z,102130.00
2023-01-29T01:21:04.890Z,102130.00
2023-01-29T01:21:18.563Z,102129.09
2023-01-29T01:21:31.238Z,102130.00
2023-01-29T01:21:47.102Z,102130.00
2023-01-29T01:21:59.695Z,102133.47
2023-01-29T01:22:12.629Z,102134.31
2023-01-29T01:22:25.388Z,102140.47
2023-01-29T01:22:38.075Z,102130.84
2023-01-29T01:22:50.797Z,102129.03
2023-01-29T01:23:05.227Z,102129.88
2023-01-29T01:23:19.441Z,102127.25
2023-01-29T01:23:32.251Z,102125.56
2023-01-29T01:23:45.155Z,102129.03
2023-01-29T01:23:57.813Z,102129.03
2023-01-29T01:24:10.451Z,102127.28
2023-01-29T01:24:24.097Z,102122.03
2023-01-29T01:24:37.379Z,102123.78
2023-01-29T01:24:50.431Z,102127.25
2023-01-29T01:25:03.134Z,102125.47
2023-01-29T01:25:16.275Z,102122.00
2023-01-29T01:25:29.116Z,102121.13
2023-01-29T01:25:41.781Z,102122.91
2023-01-29T01:25:55.388Z,102121.16
2023-01-29T01:26:11.481Z,102125.56
2023-01-29T01:26:24.115Z,102121.16
2023-01-29T01:26:36.754Z,102122.91
2023-01-29T01:26:49.398Z,102122.03
2023-01-29T01:27:02.030Z,102130.84
2023-01-29T01:27:14.928Z,102127.28
2023-01-29T01:27:28.576Z,102124.66
2023-01-29T01:27:41.840Z,102122.03
2023-01-29T01:27:55.276Z,102122.03
2023-01-29T01:28:12.009Z,102118.53
2023-01-29T01:28:24.683Z,102125.56
2023-01-29T01:28:38.018Z,102117.69
2023-01-29T01:28:52.004Z,102119.44
2023-01-29T01:29:04.703Z,102115.03
2023-01-29T01:29:17.327Z,102123.78
2023-01-29T01:29:30.175Z,102118.53
2023-01-29T01:29:42.770Z,102125.56
2023-01-29T01:29:55.387Z,102118.53
2023-01-29T01:30:11.058Z,102120.28
2023-01-29T01:30:25.427Z,102113.22
2023-01-29T01:30:38.233Z,102119.34
2023-01-29T01:30:50.919Z,102115.91
2023-01-29T01:31:09.799Z,102125.50
2023-01-29T01:31:22.841Z,102119.34
2023-01-29T01:31:35.680Z,102117.56
2023-01-29T01:31:49.406Z,102117.56
2023-01-29T01:32:02.074Z,102114.00
2023-01-29T01:32:16.016Z,102117.56
2023-01-29T01:32:28.741Z,102123.69
2023-01-29T01:32:42.760Z,102119.34
2023-01-29T01:32:55.442Z,102118.41
2023-01-29T01:33:09.339Z,102113.97
2023-01-29T01:33:21.956Z,102114.91
2023-01-29T01:33:37.394Z,102119.28
2023-01-29T01:33:51.471Z,102121.06
2023-01-29T01:34:04.096Z,102121.91
2023-01-29T01:34:16.710Z,102118.41
2023-01-29T01:34:29.592Z,102123.69
2023-01-29T01:34:45.381Z,102117.56
2023-01-29T01:34:58.037Z,102123.78
2023-01-29T01:35:12.289Z,102118.50
2023-01-29T01:35:24.942Z,102119.34
2023-01-29T01:35:38.821Z,102111.41
2023-01-29T01:35:51.464Z,102121.97
2023-01-29T01:36:05.928Z,102114.94
2023-01-29T01:36:18.561Z,102115.81
2023-01-29T01:36:32.399Z,102118.41
2023-01-29T01:36:44.987Z,102116.63
2023-01-29T01:36:57.619Z,102122.84
2023-01-29T01:37:10.212Z,102119.34
2023-01-29T01:37:23.858Z,102118.41
2023-01-29T01:37:37.669Z,102118.41
2023-01-29T01:37:50.290Z,102125.44
2023-01-29T01:38:02.922Z,102120.16
2023-01-29T01:38:15.542Z,102120.16
2023-01-29T01:38:28.164Z,102115.81
2023-01-29T01:38:45.414Z,102122.84
2023-01-29T01:38:58.486Z,102122.84
2023-01-29T01:39:11.162Z,102123.78
2023-01-29T01:39:24.506Z,102122.84
2023-01-29T01:39:37.137Z,102127.28
2023-01-29T01:39:50.627Z,102123.78
2023-01-29T01:40:04.011Z,102126.41
2023-01-29T01:40:19.943Z,102123.78
2023-01-29T01:40:32.696Z,102126.41
2023-01-29T01:40:46.356Z,102127.25
2023-01-29T01:40:59.302Z,102127.28
2023-01-29T01:41:12.915Z,102121.13
2023-01-29T01:41:25.548Z,102127.28
2023-01-29T01:41:38.156Z,102124.66
2023-01-29T01:41:50.873Z,102123.78
2023-01-29T01:42:04.557Z,102128.19
2023-01-29T01:42:17.307Z,102127.28
2023-01-29T01:42:30.576Z,102121.16
2023-01-29T01:42:43.508Z,102116.75
2023-01-29T01:42:58.101Z,102129.00
2023-01-29T01:43:11.385Z,102128.13
2023-01-29T01:43:24.938Z,102123.78
2023-01-29T01:43:51.384Z,102121.19
2023-01-29T01:44:06.340Z,102121.16
2023-01-29T01:44:53.873Z,102123.81
2023-01-29T01:45:10.348Z,102123.81
2023-01-29T01:45:26.599Z,102119.44
2023-01-29T01:45:40.026Z,102128.22
2023-01-29T01:45:52.742Z,102122.97
2023-01-29T01:46:05.435Z,102117.72
2023-01-29T01:46:18.726Z,102122.97
2023-01-29T01:46:33.800Z,102119.47
2023-01-29T01:46:46.668Z,102125.56
2023-01-29T01:47:02.845Z,102123.81
2023-01-29T01:47:17.597Z,102129.09
2023-01-29T01:47:38.066Z,102122.09
2023-01-29T01:47:54.653Z,102125.56
2023-01-29T01:48:13.122Z,102123.81
2023-01-29T01:48:26.832Z,102126.47
2023-01-29T01:48:41.719Z,102136.13
2023-01-29T01:48:58.705Z,102128.22
2023-01-29T01:49:15.915Z,102137.91
2023-01-29T01:49:28.581Z,102136.13
2023-01-29T01:49:42.324Z,102130.84
2023-01-29T01:49:58.319Z,102137.84
2023-01-29T01:50:16.485Z,102136.13
2023-01-29T01:50:34.413Z,102135.25
2023-01-29T01:50:51.021Z,102136.13
2023-01-29T01:51:07.096Z,102138.75
2023-01-29T01:51:22.061Z,102144.03
2023-01-29T01:51:40.635Z,102142.28
2023-01-29T01:51:53.329Z,102140.47
2023-01-29T01:52:06.510Z,102134.38
2023-01-29T01:52:20.233Z,102138.75
2023-01-29T01:52:33.342Z,102141.41
2023-01-29T01:52:50.019Z,102148.41
2023-01-29T01:53:07.949Z,102136.13
2023-01-29T01:53:24.189Z,102144.88
2023-01-29T01:53:43.063Z,102138.75
2023-01-29T01:54:00.043Z,102148.41
2023-01-29T01:54:17.730Z,102138.69
2023-01-29T01:54:32.872Z,102143.94
2023-01-29T01:54:46.208Z,102143.94
2023-01-29T01:55:00.277Z,102140.44
2023-01-29T01:55:17.673Z,102139.53
2023-01-29T01:55:34.396Z,102138.56
2023-01-29T01:55:53.597Z,102137.72
2023-01-29T01:56:10.272Z,102142.16
2023-01-29T01:56:29.310Z,102136.84
2023-01-29T01:56:46.237Z,102141.28
2023-01-29T01:57:09.351Z,102139.53
2023-01-29T01:57:25.711Z,102143.03
2023-01-29T01:57:39.563Z,102143.06
2023-01-29T01:57:58.737Z,102132.47
2023-01-29T01:58:16.949Z,102136.00
2023-01-29T01:58:33.638Z,102137.75
2023-01-29T01:58:50.647Z,102138.66
2023-01-29T01:59:03.310Z,102138.66
2023-01-29T01:59:19.873Z,102135.19
2023-01-29T01:59:34.094Z,102135.16
2023-01-29T01:59:50.978Z,102138.66
2023-01-29T02:00:12.938Z,102140.44
2023-01-29T02:00:27.081Z,102143.06
2023-01-29T02:00:41.131Z,102146.59
2023-01-29T02:00:55.101Z,102137.81
2023-01-29T02:01:09.845Z,102141.31
2023-01-29T02:01:26.982Z,102136.03
2023-01-29T02:01:42.891Z,102136.88
2023-01-29T02:01:55.720Z,102134.25
2023-01-29T02:02:27.027Z,102139.53
2023-01-29T02:03:00.968Z,102133.38
2023-01-29T02:03:32.431Z,102136.91
2023-01-29T02:04:09.233Z,102133.38
2023-01-29T02:04:43.036Z,102136.00
2023-01-29T02:05:14.108Z,102131.59
2023-01-29T02:05:46.429Z,102134.25
2023-01-29T02:06:18.566Z,102124.59
2023-01-29T02:06:50.401Z,102137.81
2023-01-29T02:07:24.707Z,102130.72
2023-01-29T02:07:59.990Z,102126.31
2023-01-29T02:08:31.815Z,102134.13
2023-01-29T02:09:11.244Z,102133.38
2023-01-29T02:09:34.534Z,102131.59
2023-01-29T02:09:52.658Z,102125.44
2023-01-29T02:10:10.506Z,102134.25
2023-01-29T02:10:23.181Z,102130.72
2023-01-29T02:10:40.149Z,102135.09
2023-01-29T02:10:54.187Z,102134.25
2023-01-29T02:11:07.851Z,102139.53
2023-01-29T02:11:20.831Z,102138.63
2023-01-29T02:11:33.563Z,102138.66
2023-01-29T02:11:46.396Z,102132.53
2023-01-29T02:11:59.065Z,102134.25
2023-01-29T02:12:14.646Z,102136.00
2023-01-29T02:12:31.090Z,102137.81
2023-01-29T02:12:44.241Z,102127.25
2023-01-29T02:12:57.278Z,102136.00
2023-01-29T02:13:11.084Z,102133.38
2023-01-29T02:13:23.966Z,102137.81
2023-01-29T02:13:36.754Z,102137.72
2023-01-29T02:13:53.792Z,102135.06
2023-01-29T02:14:07.180Z,102135.09
2023-01-29T02:14:20.393Z,102132.44
2023-01-29T02:14:34.573Z,102130.72
2023-01-29T02:14:47.569Z,102130.72
2023-01-29T02:15:01.742Z,102128.09
2023-01-29T02:15:14.482Z,102130.72
2023-01-29T02:15:27.056Z,102126.34
2023-01-29T02:15:42.101Z,102130.63
2023-01-29T02:15:54.795Z,102122.75
2023-01-29T02:16:07.658Z,102126.31
2023-01-29T02:16:21.180Z,102128.94
2023-01-29T02:16:34.487Z,102120.16
2023-01-29T02:16:48.130Z,102126.31
2023-01-29T02:17:01.571Z,102117.53
2023-01-29T02:17:16.505Z,102118.41
2023-01-29T02:17:29.132Z,102115.75
2023-01-29T02:17:41.978Z,102118.41
2023-01-29T02:17:54.689Z,102123.66
2023-01-29T02:18:07.490Z,102121.91
2023-01-29T02:18:22.033Z,102122.75
2023-01-29T02:18:38.166Z,102121.91
2023-01-29T02:18:52.974Z,102124.53
2023-01-29T02:19:15.018Z,102124.56
2023-01-29T02:19:39.042Z,102114.91
2023-01-29T02:20:01.684Z,102110.50
2023-01-29T02:20:24.283Z,102114.91
2023-01-29T02:20:39.231Z,102113.13
2023-01-29T02:21:06.513Z,102114.91
2023-01-29T02:21:46.687Z,102113.97
2023-01-29T02:22:29.666Z,102108.69
2023-01-29T02:23:12.831Z,102105.19
2023-01-29T02:24:04.729Z,102109.53
2023-01-29T02:25:09.683Z,102113.88
2023-01-29T02:25:48.723Z,102110.38
2023-01-29T02:26:30.099Z,102099.84
2023-01-29T02:27:07.757Z,102106.88
2023-01-29T02:27:24.419Z,102107.72
2023-01-29T02:28:11.364Z,102106.88
2023-01-29T02:28:32.565Z,102107.72
2023-01-29T02:28:49.068Z,102108.66
2023-01-29T02:29:22.384Z,102104.25
2023-01-29T02:29:46.100Z,102103.38
2023-01-29T02:30:06.570Z,102099.91
2023-01-29T02:30:26.821Z,102110.41
2023-01-29T02:30:44.772Z,102094.69
2023-01-29T02:31:09.464Z,102106.00
2023-01-29T02:31:31.079Z,102098.09
2023-01-29T02:31:51.032Z,102100.75
2023-01-29T02:32:21.237Z,102099.84
2023-01-29T02:32:40.966Z,102100.75
2023-01-29T02:32:59.650Z,102100.75
2023-01-29T02:33:22.533Z,102103.38
2023-01-29T02:33:46.685Z,102098.91
2023-01-29T02:34:12.649Z,102095.41
2023-01-29T02:34:55.539Z,102096.25
2023-01-29T02:35:32.665Z,102100.69
2023-01-29T02:35:51.797Z,102099.72
2023-01-29T02:36:18.697Z,102098.84
2023-01-29T02:36:37.988Z,102093.59
2023-01-29T02:36:57.805Z,102096.25
2023-01-29T02:37:13.935Z,102100.66
2023-01-29T02:37:36.008Z,102102.44
2023-01-29T02:37:55.891Z,102096.31
2023-01-29T02:38:17.971Z,102094.47
2023-01-29T02:38:40.702Z,102093.56
2023-01-29T02:39:01.892Z,102105.00
2023-01-29T02:39:21.343Z,102098.03
2023-01-29T02:39:38.939Z,102090.97
2023-01-29T02:40:00.015Z,102103.28
2023-01-29T02:40:26.075Z,102101.53
2023-01-29T02:40:44.266Z,102098.03
2023-01-29T02:41:01.894Z,102100.66
2023-01-29T02:41:20.427Z,102091.00
2023-01-29T02:41:43.312Z,102091.91
2023-01-29T02:42:02.185Z,102086.66
2023-01-29T02:42:25.303Z,102086.59
2023-01-29T02:42:47.195Z,102084.91
2023-01-29T02:43:09.013Z,102090.19
2023-01-29T02:43:32.174Z,102084.91
2023-01-29T02:43:47.741Z,102084.91
2023-01-29T02:44:08.465Z,102084.00
2023-01-29T02:44:29.831Z,102084.91
2023-01-29T02:44:46.965Z,102074.34
2023-01-29T02:45:06.211Z,102080.44
2023-01-29T02:45:28.638Z,102076.94
2023-01-29T02:45:48.285Z,102079.63
2023-01-29T02:46:07.798Z,102076.06
2023-01-29T02:46:30.911Z,102076.09
2023-01-29T02:46:51.295Z,102078.69
2023-01-29T02:47:08.170Z,102073.41
2023-01-29T02:47:25.910Z,102072.53
2023-01-29T02:47:43.018Z,102071.63
2023-01-29T02:47:58.810Z,102072.59
2023-01-29T02:48:18.476Z,102070.81
2023-01-29T02:48:40.931Z,102076.91
2023-01-29T02:48:58.542Z,102080.41
2023-01-29T02:49:24.315Z,102069.00
2023-01-29T02:49:46.015Z,102066.34
2023-01-29T02:50:04.976Z,102077.78
2023-01-29T02:50:21.259Z,102075.13
2023-01-29T02:50:39.032Z,102068.09
2023-01-29T02:50:58.118Z,102075.16
2023-01-29T02:51:20.230Z,102073.34
2023-01-29T02:51:37.562Z,102077.75
2023-01-29T02:51:59.716Z,102078.59
2023-01-29T02:52:18.520Z,102078.59
2023-01-29T02:52:38.328Z,102081.25
2023-01-29T02:53:00.104Z,102075.91
2023-01-29T02:53:17.023Z,102075.03
2023-01-29T02:53:36.015Z,102075.94
2023-01-29T02:53:57.861Z,102074.19
2023-01-29T02:54:17.815Z,102073.31
2023-01-29T02:54:39.862Z,102076.81
2023-01-29T02:54:57.263Z,102068.91
2023-01-29T02:55:16.062Z,102071.56
2023-01-29T02:55:34.480Z,102065.41
2023-01-29T02:55:51.890Z,102067.19
2023-01-29T02:56:13.713Z,102070.69
2023-01-29T02:56:30.189Z,102075.09
2023-01-29T02:56:50.062Z,102074.19
2023-01-29T02:57:10.018Z,102073.31
2023-01-29T02:57:29.153Z,102070.69
2023-01-29T02:57:45.156Z,102066.34
2023-01-29T02:58:05.768Z,102076.81
2023-01-29T02:58:22.378Z,102082.09
2023-01-29T02:58:41.721Z,102081.22
2023-01-29T02:59:01.847Z,102077.75
2023-01-29T02:59:20.914Z,102075.94
2023-01-29T02:59:39.453Z,102072.47
2023-01-29T02:59:55.933Z,102076.81
2023-01-29T03:00:14.984Z,102072.47
2023-01-29T03:00:33.029Z,102070.72
2023-01-29T03:00:49.123Z,102068.91
2023-01-29T03:01:06.790Z,102071.56
2023-01-29T03:01:23.428Z,102062.78
2023-01-29T03:01:42.235Z,102067.09
2023-01-29T03:01:59.785Z,102067.09
2023-01-29T03:02:18.241Z,102066.25
2023-01-29T03:02:36.055Z,102072.38
2023-01-29T03:02:54.532Z,102070.66
2023-01-29T03:03:13.876Z,102067.09
2023-01-29T03:03:32.274Z,102062.72
2023-01-29T03:03:49.594Z,102068.88
2023-01-29T03:04:07.580Z,102058.34
2023-01-29T03:04:26.679Z,102060.97
2023-01-29T03:04:45.771Z,102061.84
2023-01-29T03:05:01.863Z,102052.16
2023-01-29T03:05:23.127Z,102047.75
2023-01-29T03:05:44.932Z,102046.91
2023-01-29T03:06:06.361Z,102044.28
2023-01-29T03:06:24.286Z,102049.56
2023-01-29T03:06:41.412Z,102053.91
2023-01-29T03:06:59.523Z,102046.00
2023-01-29T03:07:38.588Z,102053.06
2023-01-29T03:07:54.679Z,102046.84